sensor_id;sensor_type;location;lat;lon;timestamp;pressure;altitude;pressure_sealevel;temperature;humidity
65211;BME280;51794;52.758;55.792;2023-02-15T00:01:44;97425.34;;;-8.33;70.22
65211;BME280;51794;52.758;55.792;2023-02-15T00:04:13;97420.88;;;-7.77;70.43
65211;BME280;51794;52.758;55.792;2023-02-15T00:06:39;97422.34;;;-7.22;68.33
65211;BME280;51794;52.758;55.792;2023-02-15T00:09:05;97408.97;;;-7.13;66.76
65211;BME280;51794;52.758;55.792;2023-02-15T00:11:31;97415.03;;;-7.80;67.86
65211;BME280;51794;52.758;55.792;2023-02-15T00:14:15;97418.75;;;-8.56;69.75
65211;BME280;51794;52.758;55.792;2023-02-15T00:16:42;97414.28;;;-7.16;69.11
65211;BME280;51794;52.758;55.792;2023-02-15T00:19:10;97415.53;;;-7.56;69.11
65211;BME280;51794;52.758;55.792;2023-02-15T00:21:37;97409.91;;;-7.14;70.66
65211;BME280;51794;52.758;55.792;2023-02-15T00:24:05;97412.72;;;-7.85;68.44
65211;BME280;51794;52.758;55.792;2023-02-15T00:26:32;97408.97;;;-7.13;68.73
65211;BME280;51794;52.758;55.792;2023-02-15T00:28:58;97415.38;;;-7.04;70.37
65211;BME280;51794;52.758;55.792;2023-02-15T00:31:25;97409.94;;;-7.31;69.58
65211;BME280;51794;52.758;55.792;2023-02-15T00:33:51;97404.28;;;-7.89;68.90
65211;BME280;51794;52.758;55.792;2023-02-15T00:36:17;97400.59;;;-7.50;67.59
65211;BME280;51794;52.758;55.792;2023-02-15T00:38:43;97396.50;;;-7.37;67.47
65211;BME280;51794;52.758;55.792;2023-02-15T00:41:09;97391.25;;;-7.35;67.46
65211;BME280;51794;52.758;55.792;2023-02-15T00:43:36;97383.44;;;-8.00;69.07
65211;BME280;51794;52.758;55.792;2023-02-15T00:46:03;97395.84;;;-7.91;68.97
65211;BME280;51794;52.758;55.792;2023-02-15T00:48:30;97401.00;;;-7.91;67.75
65211;BME280;51794;52.758;55.792;2023-02-15T00:50:58;97402.59;;;-7.55;67.77
65211;BME280;51794;52.758;55.792;2023-02-15T00:53:25;97396.69;;;-7.57;67.47
65211;BME280;51794;52.758;55.792;2023-02-15T00:55:52;97392.34;;;-7.23;68.07
65211;BME280;51794;52.758;55.792;2023-02-15T00:58:18;97391.97;;;-7.00;66.49
65211;BME280;51794;52.758;55.792;2023-02-15T01:00:46;97393.31;;;-7.57;66.85
65211;BME280;51794;52.758;55.792;2023-02-15T01:03:14;97389.22;;;-6.81;67.04
65211;BME280;51794;52.758;55.792;2023-02-15T01:05:40;97387.03;;;-7.69;66.65
65211;BME280;51794;52.758;55.792;2023-02-15T01:08:06;97389.97;;;-7.77;68.40
65211;BME280;51794;52.758;55.792;2023-02-15T01:10:33;97385.47;;;-8.07;69.12
65211;BME280;51794;52.758;55.792;2023-02-15T01:12:59;97385.16;;;-8.00;68.07
65211;BME280;51794;52.758;55.792;2023-02-15T01:15:25;97377.69;;;-8.22;68.69
65211;BME280;51794;52.758;55.792;2023-02-15T01:17:52;97367.50;;;-7.73;68.18
65211;BME280;51794;52.758;55.792;2023-02-15T01:20:24;97375.69;;;-7.00;67.97
65211;BME280;51794;52.758;55.792;2023-02-15T01:22:50;97381.56;;;-8.14;69.29
65211;BME280;51794;52.758;55.792;2023-02-15T01:25:19;97380.03;;;-7.34;68.54
65211;BME280;51794;52.758;55.792;2023-02-15T01:27:45;97380.41;;;-8.08;69.20
65211;BME280;51794;52.758;55.792;2023-02-15T01:30:12;97373.75;;;-7.95;68.97
65211;BME280;51794;52.758;55.792;2023-02-15T01:32:38;97374.03;;;-8.01;68.53
65211;BME280;51794;52.758;55.792;2023-02-15T01:35:04;97376.06;;;-8.41;69.58
65211;BME280;51794;52.758;55.792;2023-02-15T01:37:31;97378.44;;;-8.38;69.66
65211;BME280;51794;52.758;55.792;2023-02-15T01:39:57;97373.06;;;-8.16;69.29
65211;BME280;51794;52.758;55.792;2023-02-15T01:42:26;97362.81;;;-8.33;69.60
65211;BME280;51794;52.758;55.792;2023-02-15T01:45:00;97368.03;;;-8.52;69.87
65211;BME280;51794;52.758;55.792;2023-02-15T01:50:33;97383.59;;;-8.20;70.42
65211;BME280;51794;52.758;55.792;2023-02-15T01:55:37;97368.00;;;-8.00;69.80
65211;BME280;51794;52.758;55.792;2023-02-15T01:58:04;97381.59;;;-8.67;70.48
65211;BME280;51794;52.758;55.792;2023-02-15T02:00:30;97383.97;;;-8.11;69.80
65211;BME280;51794;52.758;55.792;2023-02-15T02:02:56;97375.38;;;-7.43;68.26
65211;BME280;51794;52.758;55.792;2023-02-15T02:05:23;97374.34;;;-7.23;66.63
65211;BME280;51794;52.758;55.792;2023-02-15T02:07:51;97378.69;;;-7.57;68.13
65211;BME280;51794;52.758;55.792;2023-02-15T02:10:21;97386.75;;;-7.47;68.36
65211;BME280;51794;52.758;55.792;2023-02-15T02:12:50;97383.03;;;-7.75;71.69
65211;BME280;51794;52.758;55.792;2023-02-15T02:15:21;97391.44;;;-7.89;70.15
65211;BME280;51794;52.758;55.792;2023-02-15T02:32:27;97383.81;;;-7.08;68.33
65211;BME280;51794;52.758;55.792;2023-02-15T02:37:45;97383.41;;;-7.49;67.59
65211;BME280;51794;52.758;55.792;2023-02-15T02:42:52;97389.81;;;-6.76;67.90
65211;BME280;51794;52.758;55.792;2023-02-15T02:45:58;97394.97;;;-6.00;66.68
65211;BME280;51794;52.758;55.792;2023-02-15T02:48:32;97389.06;;;-6.32;67.00
65211;BME280;51794;52.758;55.792;2023-02-15T02:50:59;97395.28;;;-6.82;66.75
65211;BME280;51794;52.758;55.792;2023-02-15T02:53:26;97391.78;;;-6.65;67.07
65211;BME280;51794;52.758;55.792;2023-02-15T02:55:58;97409.59;;;-6.76;67.67
65211;BME280;51794;52.758;55.792;2023-02-15T02:58:38;97406.09;;;-5.26;66.83
65211;BME280;51794;52.758;55.792;2023-02-15T03:01:24;97405.63;;;-5.18;65.35
65211;BME280;51794;52.758;55.792;2023-02-15T03:03:59;97416.50;;;-6.61;68.07
65211;BME280;51794;52.758;55.792;2023-02-15T03:06:48;97412.78;;;-5.95;70.98
65211;BME280;51794;52.758;55.792;2023-02-15T03:09:25;97430.84;;;-6.25;72.69
65211;BME280;51794;52.758;55.792;2023-02-15T03:12:01;97418.31;;;-5.72;74.62
65211;BME280;51794;52.758;55.792;2023-02-15T03:14:29;97431.69;;;-6.72;73.73
65211;BME280;51794;52.758;55.792;2023-02-15T03:16:56;97423.81;;;-6.85;72.66
65211;BME280;51794;52.758;55.792;2023-02-15T03:19:27;97431.03;;;-6.76;72.86
65211;BME280;51794;52.758;55.792;2023-02-15T03:22:01;97428.44;;;-6.60;75.53
65211;BME280;51794;52.758;55.792;2023-02-15T03:24:45;97422.81;;;-7.31;72.91
65211;BME280;51794;52.758;55.792;2023-02-15T03:27:17;97425.97;;;-6.77;73.58
65211;BME280;51794;52.758;55.792;2023-02-15T03:29:48;97419.22;;;-7.11;98.77
65211;BME280;51794;52.758;55.792;2023-02-15T03:32:15;97425.28;;;-6.97;76.45
65211;BME280;51794;52.758;55.792;2023-02-15T03:34:43;97416.19;;;-7.36;74.22
65211;BME280;51794;52.758;55.792;2023-02-15T03:39:55;97420.19;;;-7.14;74.26
65211;BME280;51794;52.758;55.792;2023-02-15T03:42:43;97416.81;;;-6.51;72.35
65211;BME280;51794;52.758;55.792;2023-02-15T03:45:13;97416.56;;;-6.62;71.78
65211;BME280;51794;52.758;55.792;2023-02-15T03:47:48;97425.59;;;-5.93;71.42
65211;BME280;51794;52.758;55.792;2023-02-15T03:50:23;97431.88;;;-6.43;70.20
65211;BME280;51794;52.758;55.792;2023-02-15T03:53:12;97430.44;;;-6.33;70.18
65211;BME280;51794;52.758;55.792;2023-02-15T03:55:40;97427.03;;;-6.04;70.31
65211;BME280;51794;52.758;55.792;2023-02-15T03:58:06;97427.09;;;-6.35;70.43
65211;BME280;51794;52.758;55.792;2023-02-15T04:04:32;97423.13;;;-5.66;69.06
65211;BME280;51794;52.758;55.792;2023-02-15T04:06:59;97424.50;;;-6.35;68.79
65211;BME280;51794;52.758;55.792;2023-02-15T04:09:25;97426.53;;;-6.72;69.65
65211;BME280;51794;52.758;55.792;2023-02-15T04:12:09;97430.72;;;-5.49;69.57
65211;BME280;51794;52.758;55.792;2023-02-15T04:14:35;97432.94;;;-5.00;67.95
65211;BME280;51794;52.758;55.792;2023-02-15T04:17:19;97423.63;;;-5.17;66.68
65211;BME280;51794;52.758;55.792;2023-02-15T04:19:45;97422.09;;;-6.38;68.05
65211;BME280;51794;52.758;55.792;2023-02-15T04:22:30;97419.81;;;-6.43;69.85
65211;BME280;51794;52.758;55.792;2023-02-15T04:25:14;97428.22;;;-6.09;69.15
65211;BME280;51794;52.758;55.792;2023-02-15T04:27:43;97434.88;;;-5.46;69.63
65211;BME280;51794;52.758;55.792;2023-02-15T04:30:10;97424.97;;;-6.13;70.96
65211;BME280;51794;52.758;55.792;2023-02-15T04:32:37;97408.38;;;-6.39;70.23
65211;BME280;51794;52.758;55.792;2023-02-15T04:35:05;97425.06;;;-5.70;68.84
65211;BME280;51794;52.758;55.792;2023-02-15T04:37:31;97418.91;;;-5.39;69.53
65211;BME280;51794;52.758;55.792;2023-02-15T04:39:57;97425.25;;;-5.73;69.60
65211;BME280;51794;52.758;55.792;2023-02-15T04:42:26;97416.63;;;-5.88;68.17
65211;BME280;51794;52.758;55.792;2023-02-15T04:44:53;97426.50;;;-6.25;69.05
65211;BME280;51794;52.758;55.792;2023-02-15T04:47:19;97424.97;;;-6.43;69.44
65211;BME280;51794;52.758;55.792;2023-02-15T04:49:45;97415.13;;;-6.36;70.00
65211;BME280;51794;52.758;55.792;2023-02-15T04:52:12;97425.44;;;-6.36;69.22
65211;BME280;51794;52.758;55.792;2023-02-15T04:54:38;97431.13;;;-5.85;69.03
65211;BME280;51794;52.758;55.792;2023-02-15T04:57:05;97424.34;;;-6.32;70.03
65211;BME280;51794;52.758;55.792;2023-02-15T04:59:32;97435.94;;;-6.39;94.87
65211;BME280;51794;52.758;55.792;2023-02-15T05:01:57;97431.97;;;-6.61;100.00
65211;BME280;51794;52.758;55.792;2023-02-15T05:04:23;97425.50;;;-6.22;77.11
65211;BME280;51794;52.758;55.792;2023-02-15T05:06:49;97418.03;;;-6.42;72.08
65211;BME280;51794;52.758;55.792;2023-02-15T05:09:16;97418.31;;;-6.01;70.71
65211;BME280;51794;52.758;55.792;2023-02-15T05:11:42;97410.34;;;-6.58;71.37
65211;BME280;51794;52.758;55.792;2023-02-15T05:14:08;97413.31;;;-6.66;72.08
65211;BME280;51794;52.758;55.792;2023-02-15T05:16:34;97412.78;;;-6.41;71.84
65211;BME280;51794;52.758;55.792;2023-02-15T05:19:00;97412.06;;;-6.59;71.41
65211;BME280;51794;52.758;55.792;2023-02-15T05:21:26;97414.16;;;-6.65;71.17
65211;BME280;51794;52.758;55.792;2023-02-15T05:23:52;97418.28;;;-6.31;70.47
65211;BME280;51794;52.758;55.792;2023-02-15T05:26:21;97418.38;;;-5.88;75.90
65211;BME280;51794;52.758;55.792;2023-02-15T05:29:06;97415.31;;;-5.36;71.06
65211;BME280;51794;52.758;55.792;2023-02-15T05:31:32;97409.78;;;-5.30;68.97
65211;BME280;51794;52.758;55.792;2023-02-15T05:33:58;97415.81;;;-4.74;71.06
65211;BME280;51794;52.758;55.792;2023-02-15T05:36:24;97418.31;;;-4.45;68.25
65211;BME280;51794;52.758;55.792;2023-02-15T05:38:50;97422.78;;;-4.47;67.42
65211;BME280;51794;52.758;55.792;2023-02-15T05:41:16;97412.88;;;-4.82;66.55
65211;BME280;51794;52.758;55.792;2023-02-15T05:43:42;97414.81;;;-3.01;68.83
65211;BME280;51794;52.758;55.792;2023-02-15T05:46:09;97403.63;;;-4.18;67.66
65211;BME280;51794;52.758;55.792;2023-02-15T05:48:35;97413.50;;;-4.37;65.73
65211;BME280;51794;52.758;55.792;2023-02-15T05:51:09;97421.41;;;-3.86;66.52
65211;BME280;51794;52.758;55.792;2023-02-15T05:53:37;97420.97;;;-4.60;67.37
65211;BME280;51794;52.758;55.792;2023-02-15T05:56:04;97430.59;;;-3.95;66.22
65211;BME280;51794;52.758;55.792;2023-02-15T05:58:36;97424.72;;;-2.45;71.02
65211;BME280;51794;52.758;55.792;2023-02-15T06:01:11;97424.66;;;-2.08;67.44
65211;BME280;51794;52.758;55.792;2023-02-15T06:03:37;97438.75;;;-2.97;69.49
65211;BME280;51794;52.758;55.792;2023-02-15T06:06:03;97442.94;;;-3.85;67.40
65211;BME280;51794;52.758;55.792;2023-02-15T06:08:31;97451.31;;;-3.29;70.09
65211;BME280;51794;52.758;55.792;2023-02-15T06:10:57;97444.31;;;-3.80;69.73
65211;BME280;51794;52.758;55.792;2023-02-15T06:13:23;97446.44;;;-2.83;69.56
65211;BME280;51794;52.758;55.792;2023-02-15T06:15:49;97442.78;;;-2.43;71.26
65211;BME280;51794;52.758;55.792;2023-02-15T06:18:15;97446.75;;;-1.78;71.14
65211;BME280;51794;52.758;55.792;2023-02-15T06:20:41;97440.84;;;-3.28;68.49
65211;BME280;51794;52.758;55.792;2023-02-15T06:23:06;97439.50;;;-3.20;74.85
65211;BME280;51794;52.758;55.792;2023-02-15T06:25:32;97448.31;;;-3.49;67.24
65211;BME280;51794;52.758;55.792;2023-02-15T06:27:58;97444.22;;;-2.15;69.18
65211;BME280;51794;52.758;55.792;2023-02-15T06:30:24;97441.28;;;-2.71;69.46
65211;BME280;51794;52.758;55.792;2023-02-15T06:32:50;97444.44;;;-2.42;70.35
65211;BME280;51794;52.758;55.792;2023-02-15T06:35:16;97447.03;;;-2.79;68.79
65211;BME280;51794;52.758;55.792;2023-02-15T06:37:45;97432.22;;;-2.05;67.13
65211;BME280;51794;52.758;55.792;2023-02-15T06:40:11;97438.28;;;-1.69;64.54
65211;BME280;51794;52.758;55.792;2023-02-15T06:42:37;97434.97;;;-2.07;65.85
65211;BME280;51794;52.758;55.792;2023-02-15T06:45:04;97439.81;;;-2.02;65.72
65211;BME280;51794;52.758;55.792;2023-02-15T06:47:30;97440.78;;;-2.64;66.28
65211;BME280;51794;52.758;55.792;2023-02-15T06:49:56;97450.59;;;-3.18;64.97
65211;BME280;51794;52.758;55.792;2023-02-15T06:52:23;97450.16;;;-2.87;64.35
65211;BME280;51794;52.758;55.792;2023-02-15T06:54:49;97454.03;;;-2.56;68.48
65211;BME280;51794;52.758;55.792;2023-02-15T06:57:15;97445.72;;;-3.23;65.96
65211;BME280;51794;52.758;55.792;2023-02-15T06:59:41;97445.97;;;-2.64;68.15
65211;BME280;51794;52.758;55.792;2023-02-15T07:02:12;97438.75;;;-1.99;68.23
65211;BME280;51794;52.758;55.792;2023-02-15T07:04:38;97439.94;;;-2.03;65.55
65211;BME280;51794;52.758;55.792;2023-02-15T07:07:07;97437.41;;;-2.16;65.75
65211;BME280;51794;52.758;55.792;2023-02-15T07:09:33;97432.97;;;-1.68;66.06
65211;BME280;51794;52.758;55.792;2023-02-15T07:11:59;97439.78;;;-1.78;66.14
65211;BME280;51794;52.758;55.792;2023-02-15T07:14:43;97442.78;;;-1.13;67.42
65211;BME280;51794;52.758;55.792;2023-02-15T07:17:09;97445.63;;;-1.63;70.76
65211;BME280;51794;52.758;55.792;2023-02-15T07:19:35;97446.44;;;-1.05;83.26
65211;BME280;51794;52.758;55.792;2023-02-15T07:22:02;97455.31;;;-0.51;87.42
65211;BME280;51794;52.758;55.792;2023-02-15T07:24:30;97453.25;;;-1.73;82.90
65211;BME280;51794;52.758;55.792;2023-02-15T07:26:56;97447.34;;;-2.10;98.36
65211;BME280;51794;52.758;55.792;2023-02-15T07:29:23;97444.47;;;-1.59;86.36
65211;BME280;51794;52.758;55.792;2023-02-15T07:31:50;97445.38;;;-0.91;79.34
65211;BME280;51794;52.758;55.792;2023-02-15T07:34:16;97448.88;;;-1.37;78.42
65211;BME280;51794;52.758;55.792;2023-02-15T07:36:42;97450.25;;;-2.15;72.47
65211;BME280;51794;52.758;55.792;2023-02-15T07:39:14;97451.03;;;-2.01;91.26
65211;BME280;51794;52.758;55.792;2023-02-15T07:41:40;97455.44;;;-1.91;90.59
65211;BME280;51794;52.758;55.792;2023-02-15T07:44:13;97455.44;;;-0.75;100.00
65211;BME280;51794;52.758;55.792;2023-02-15T07:46:42;97457.06;;;-0.97;78.57
65211;BME280;51794;52.758;55.792;2023-02-15T07:49:08;97458.50;;;-0.70;77.00
65211;BME280;51794;52.758;55.792;2023-02-15T07:51:37;97460.72;;;-0.43;75.31
65211;BME280;51794;52.758;55.792;2023-02-15T07:54:03;97460.06;;;-0.13;75.76
65211;BME280;51794;52.758;55.792;2023-02-15T07:56:29;97468.78;;;-0.46;79.79
65211;BME280;51794;52.758;55.792;2023-02-15T07:58:55;97462.88;;;-0.48;78.91
65211;BME280;51794;52.758;55.792;2023-02-15T08:01:29;97452.66;;;0.36;99.49
65211;BME280;51794;52.758;55.792;2023-02-15T08:03:56;97450.44;;;0.31;73.80
65211;BME280;51794;52.758;55.792;2023-02-15T08:06:25;97450.56;;;0.30;72.59
65211;BME280;51794;52.758;55.792;2023-02-15T08:08:51;97451.41;;;-0.68;66.00
65211;BME280;51794;52.758;55.792;2023-02-15T08:11:23;97447.78;;;-0.22;68.40
65211;BME280;51794;52.758;55.792;2023-02-15T08:16:48;97444.91;;;-0.08;64.91
65211;BME280;51794;52.758;55.792;2023-02-15T08:19:21;97436.22;;;-0.40;67.36
65211;BME280;51794;52.758;55.792;2023-02-15T08:21:50;97438.50;;;-1.03;73.61
65211;BME280;51794;52.758;55.792;2023-02-15T08:24:18;97450.44;;;-1.12;70.99
65211;BME280;51794;52.758;55.792;2023-02-15T08:26:47;97450.56;;;-1.25;65.21
65211;BME280;51794;52.758;55.792;2023-02-15T08:29:17;97454.25;;;-0.71;67.84
65211;BME280;51794;52.758;55.792;2023-02-15T08:31:43;97447.59;;;-1.09;67.45
65211;BME280;51794;52.758;55.792;2023-02-15T08:34:11;97444.19;;;-0.42;77.58
65211;BME280;51794;52.758;55.792;2023-02-15T08:36:39;97460.19;;;-2.33;71.67
65211;BME280;51794;52.758;55.792;2023-02-15T08:39:05;97443.84;;;-0.82;66.37
65211;BME280;51794;52.758;55.792;2023-02-15T08:41:36;97456.06;;;-0.17;66.46
65211;BME280;51794;52.758;55.792;2023-02-15T08:44:11;97456.75;;;0.91;67.99
65211;BME280;51794;52.758;55.792;2023-02-15T08:46:42;97468.88;;;-0.36;67.99
65211;BME280;51794;52.758;55.792;2023-02-15T08:49:09;97462.44;;;0.22;73.06
65211;BME280;51794;52.758;55.792;2023-02-15T08:51:37;97470.22;;;0.34;68.45
65211;BME280;51794;52.758;55.792;2023-02-15T08:54:06;97469.63;;;0.09;65.29
65211;BME280;51794;52.758;55.792;2023-02-15T08:56:38;97471.22;;;0.21;67.98
65211;BME280;51794;52.758;55.792;2023-02-15T08:59:04;97472.72;;;0.03;73.60
65211;BME280;51794;52.758;55.792;2023-02-15T09:01:33;97474.69;;;0.11;68.56
65211;BME280;51794;52.758;55.792;2023-02-15T09:04:01;97473.31;;;0.07;65.38
65211;BME280;51794;52.758;55.792;2023-02-15T09:06:28;97462.31;;;-0.63;65.74
65211;BME280;51794;52.758;55.792;2023-02-15T09:08:54;97465.97;;;-0.65;67.70
65211;BME280;51794;52.758;55.792;2023-02-15T09:11:33;97468.59;;;-1.46;65.43
65211;BME280;51794;52.758;55.792;2023-02-15T09:14:05;97456.00;;;-1.05;66.81
65211;BME280;51794;52.758;55.792;2023-02-15T09:16:33;97460.81;;;0.21;77.98
65211;BME280;51794;52.758;55.792;2023-02-15T09:19:00;97437.13;;;-1.54;100.00
65211;BME280;51794;52.758;55.792;2023-02-15T09:21:31;97465.56;;;-1.28;81.21
65211;BME280;51794;52.758;55.792;2023-02-15T09:24:00;97460.13;;;-0.24;69.46
65211;BME280;51794;52.758;55.792;2023-02-15T09:26:28;97449.00;;;-0.49;66.80
65211;BME280;51794;52.758;55.792;2023-02-15T09:28:57;97450.78;;;-0.49;63.42
65211;BME280;51794;52.758;55.792;2023-02-15T09:31:32;97456.59;;;-0.46;63.21
65211;BME280;51794;52.758;55.792;2023-02-15T09:34:00;97448.97;;;-0.15;61.97
65211;BME280;51794;52.758;55.792;2023-02-15T09:36:33;97446.22;;;-0.68;62.52
65211;BME280;51794;52.758;55.792;2023-02-15T09:39:06;97452.81;;;0.55;69.04
65211;BME280;51794;52.758;55.792;2023-02-15T09:41:58;97454.59;;;0.55;63.87
65211;BME280;51794;52.758;55.792;2023-02-15T09:47:42;97442.56;;;-0.22;60.75
65211;BME280;51794;52.758;55.792;2023-02-15T09:53:25;97445.91;;;-0.31;61.30
65211;BME280;51794;52.758;55.792;2023-02-15T09:58:47;97445.91;;;-0.31;61.13
65211;BME280;51794;52.758;55.792;2023-02-15T10:21:09;97441.84;;;-0.90;61.18
65211;BME280;51794;52.758;55.792;2023-02-15T10:27:05;97457.97;;;-0.19;61.24
65211;BME280;51794;52.758;55.792;2023-02-15T10:29:37;97449.28;;;-0.97;60.83
65211;BME280;51794;52.758;55.792;2023-02-15T10:35:22;97457.19;;;0.97;59.48
65211;BME280;51794;52.758;55.792;2023-02-15T10:51:44;97451.88;;;-0.74;61.14
65211;BME280;51794;52.758;55.792;2023-02-15T10:54:35;97461.19;;;-0.38;61.20
65211;BME280;51794;52.758;55.792;2023-02-15T11:00:17;97470.25;;;-0.10;63.66
65211;BME280;51794;52.758;55.792;2023-02-15T11:06:13;97479.81;;;-0.99;62.67
65211;BME280;51794;52.758;55.792;2023-02-15T11:08:43;97483.56;;;-0.24;62.69
65211;BME280;51794;52.758;55.792;2023-02-15T11:11:15;97478.78;;;-0.19;61.14
65211;BME280;51794;52.758;55.792;2023-02-15T11:13:53;97487.59;;;0.44;59.75
65211;BME280;51794;52.758;55.792;2023-02-15T11:16:27;97495.41;;;-0.31;59.40
65211;BME280;51794;52.758;55.792;2023-02-15T11:21:44;97505.88;;;0.01;60.01
65211;BME280;51794;52.758;55.792;2023-02-15T11:24:17;97508.47;;;0.65;59.99
65211;BME280;51794;52.758;55.792;2023-02-15T11:31:59;97497.78;;;0.48;58.61
65211;BME280;51794;52.758;55.792;2023-02-15T11:34:37;97503.53;;;-0.13;59.28
65211;BME280;51794;52.758;55.792;2023-02-15T11:37:12;97505.31;;;0.62;60.08
65211;BME280;51794;52.758;55.792;2023-02-15T11:39:42;97506.72;;;-0.10;59.57
65211;BME280;51794;52.758;55.792;2023-02-15T11:42:14;97499.56;;;-0.74;60.44
65211;BME280;51794;52.758;55.792;2023-02-15T11:47:22;97519.81;;;-1.35;61.93
65211;BME280;51794;52.758;55.792;2023-02-15T11:49:48;97520.31;;;-1.19;61.40
65211;BME280;51794;52.758;55.792;2023-02-15T11:52:16;97524.56;;;-1.29;61.19
65211;BME280;51794;52.758;55.792;2023-02-15T11:54:46;97520.50;;;-0.86;61.51
65211;BME280;51794;52.758;55.792;2023-02-15T11:57:34;97531.47;;;-0.94;62.54
65211;BME280;51794;52.758;55.792;2023-02-15T12:00:12;97540.97;;;-0.59;61.55
65211;BME280;51794;52.758;55.792;2023-02-15T12:02:44;97554.00;;;-2.76;64.57
65211;BME280;51794;52.758;55.792;2023-02-15T12:05:17;97553.47;;;-1.33;63.25
65211;BME280;51794;52.758;55.792;2023-02-15T12:08:00;97555.09;;;-2.41;62.99
65211;BME280;51794;52.758;55.792;2023-02-15T12:10:38;97550.56;;;-1.18;64.04
65211;BME280;51794;52.758;55.792;2023-02-15T12:13:14;97559.47;;;-1.09;63.97
65211;BME280;51794;52.758;55.792;2023-02-15T12:15:46;97556.56;;;-0.93;62.87
65211;BME280;51794;52.758;55.792;2023-02-15T12:18:38;97561.00;;;-1.90;62.44
65211;BME280;51794;52.758;55.792;2023-02-15T12:21:14;97556.03;;;-1.93;63.39
65211;BME280;51794;52.758;55.792;2023-02-15T12:23:46;97562.84;;;-1.55;65.41
65211;BME280;51794;52.758;55.792;2023-02-15T12:26:14;97567.16;;;-1.67;64.12
65211;BME280;51794;52.758;55.792;2023-02-15T12:28:42;97568.03;;;-1.55;63.91
65211;BME280;51794;52.758;55.792;2023-02-15T12:31:33;97563.09;;;-1.23;62.13
65211;BME280;51794;52.758;55.792;2023-02-15T12:34:07;97572.88;;;-1.62;63.75
65211;BME280;51794;52.758;55.792;2023-02-15T12:36:42;97569.31;;;-1.01;63.13
65211;BME280;51794;52.758;55.792;2023-02-15T12:42:03;97570.66;;;-1.55;63.25
65211;BME280;51794;52.758;55.792;2023-02-15T12:44:32;97576.34;;;-2.11;64.10
65211;BME280;51794;52.758;55.792;2023-02-15T12:49:30;97584.03;;;-0.66;62.41
65211;BME280;51794;52.758;55.792;2023-02-15T12:52:02;97593.44;;;-1.34;63.48
65211;BME280;51794;52.758;55.792;2023-02-15T12:54:35;97605.53;;;-1.46;63.20
65211;BME280;51794;52.758;55.792;2023-02-15T12:59:51;97603.91;;;-2.34;64.57
65211;BME280;51794;52.758;55.792;2023-02-15T13:02:24;97598.69;;;-1.23;63.44
65211;BME280;51794;52.758;55.792;2023-02-15T13:04:51;97607.78;;;-1.66;64.29
65211;BME280;51794;52.758;55.792;2023-02-15T13:07:18;97599.00;;;-1.76;63.97
65211;BME280;51794;52.758;55.792;2023-02-15T13:09:46;97608.75;;;-1.67;63.11
65211;BME280;51794;52.758;55.792;2023-02-15T13:12:22;97607.88;;;-1.91;64.10
65211;BME280;51794;52.758;55.792;2023-02-15T13:14:51;97613.38;;;-1.83;65.77
65211;BME280;51794;52.758;55.792;2023-02-15T13:17:30;97618.81;;;-2.12;65.49
65211;BME280;51794;52.758;55.792;2023-02-15T13:20:02;97623.50;;;-2.17;66.86
65211;BME280;51794;52.758;55.792;2023-02-15T13:22:38;97624.16;;;-2.51;66.13
65211;BME280;51794;52.758;55.792;2023-02-15T13:25:14;97632.16;;;-2.16;65.54
65211;BME280;51794;52.758;55.792;2023-02-15T13:27:44;97636.28;;;-2.01;66.17
65211;BME280;51794;52.758;55.792;2023-02-15T13:30:23;97633.13;;;-1.93;64.95
65211;BME280;51794;52.758;55.792;2023-02-15T13:32:55;97639.00;;;-2.54;66.97
65211;BME280;51794;52.758;55.792;2023-02-15T13:35:22;97647.03;;;-3.09;66.90
65211;BME280;51794;52.758;55.792;2023-02-15T13:40:55;97650.44;;;-2.43;66.22
65211;BME280;51794;52.758;55.792;2023-02-15T13:49:16;97663.88;;;-1.74;64.77
65211;BME280;51794;52.758;55.792;2023-02-15T13:54:33;97665.88;;;-1.54;63.95
65211;BME280;51794;52.758;55.792;2023-02-15T14:00:21;97675.91;;;-3.70;67.36
65211;BME280;51794;52.758;55.792;2023-02-15T14:08:58;97670.03;;;-3.45;69.21
65211;BME280;51794;52.758;55.792;2023-02-15T14:11:44;97680.78;;;-3.65;68.79
65211;BME280;51794;52.758;55.792;2023-02-15T14:15:07;97681.84;;;-3.40;67.96
65211;BME280;51794;52.758;55.792;2023-02-15T14:18:05;97681.94;;;-3.42;68.44
65211;BME280;51794;52.758;55.792;2023-02-15T14:20:43;97680.97;;;-3.54;67.33
65211;BME280;51794;52.758;55.792;2023-02-15T14:26:35;97688.56;;;-2.31;64.76
65211;BME280;51794;52.758;55.792;2023-02-15T14:29:28;97691.84;;;-2.42;69.14
65211;BME280;51794;52.758;55.792;2023-02-15T14:32:05;97696.22;;;-2.30;66.36
65211;BME280;51794;52.758;55.792;2023-02-15T14:34:45;97688.97;;;-2.24;65.79
65211;BME280;51794;52.758;55.792;2023-02-15T14:37:13;97689.53;;;-2.72;67.31
65211;BME280;51794;52.758;55.792;2023-02-15T14:45:55;97706.09;;;-2.09;69.65
65211;BME280;51794;52.758;55.792;2023-02-15T14:48:24;97712.34;;;-3.31;68.10
65211;BME280;51794;52.758;55.792;2023-02-15T14:50:51;97707.00;;;-2.61;73.02
65211;BME280;51794;52.758;55.792;2023-02-15T14:58:37;97713.22;;;-1.62;67.59
65211;BME280;51794;52.758;55.792;2023-02-15T15:01:06;97716.59;;;-1.48;66.60
65211;BME280;51794;52.758;55.792;2023-02-15T15:03:34;97714.06;;;-2.38;69.63
65211;BME280;51794;52.758;55.792;2023-02-15T15:06:02;97711.09;;;-3.11;71.99
65211;BME280;51794;52.758;55.792;2023-02-15T15:08:39;97720.63;;;-2.07;72.66
65211;BME280;51794;52.758;55.792;2023-02-15T15:14:04;97732.97;;;-3.71;73.75
65211;BME280;51794;52.758;55.792;2023-02-15T15:16:47;97732.22;;;-3.59;76.72
65211;BME280;51794;52.758;55.792;2023-02-15T15:22:25;97731.25;;;-2.62;80.25
65211;BME280;51794;52.758;55.792;2023-02-15T15:25:08;97724.84;;;-3.24;77.31
65211;BME280;51794;52.758;55.792;2023-02-15T15:27:40;97729.13;;;-2.43;76.61
65211;BME280;51794;52.758;55.792;2023-02-15T15:32:46;97734.75;;;-3.57;78.29
65211;BME280;51794;52.758;55.792;2023-02-15T15:41:35;97749.16;;;-3.39;76.70
65211;BME280;51794;52.758;55.792;2023-02-15T15:49:56;97754.09;;;-3.22;78.44
65211;BME280;51794;52.758;55.792;2023-02-15T15:52:30;97753.50;;;-3.39;77.57
65211;BME280;51794;52.758;55.792;2023-02-15T15:55:13;97764.50;;;-3.50;76.68